Time;durP1;ratioP1;P1;durP2;ratioP2;P2;SDS_P1;SDS_P2;PMS_P1;PMS_P2;Temp;Humidity;BMP_temperature;BMP_pressure;BME280_temperature;BME280_humidity;BME280_pressure;Samples;Min_cycle;Max_cycle;Signal;HPM_P1;HPM_P2
2023/06/20 00:00:06;;;;;;;8.80;7.20;;;;;;;23.90;59.94;101190.08;106273;1276;25373;-49
2023/06/20 00:02:33;;;;;;;9.80;8.10;;;;;;;23.88;60.02;101192.70;106073;1272;25335;-49
2023/06/20 00:05:02;;;;;;;10.50;7.50;;;;;;;23.86;60.05;101192.34;106323;1280;25366;-49
2023/06/20 00:07:30;;;;;;;8.80;7.10;;;;;;;23.85;60.10;101193.27;106398;1274;24050;-49
2023/06/20 00:09:57;;;;;;;8.30;7.50;;;;;;;23.88;59.52;101194.38;106883;1260;22534;-49
2023/06/20 00:12:24;;;;;;;9.30;7.00;;;;;;;23.88;59.09;101191.52;106908;1270;23304;-50
2023/06/20 00:14:51;;;;;;;8.30;7.40;;;;;;;23.85;58.76;101188.35;106809;1260;26500;-49
2023/06/20 00:17:18;;;;;;;8.10;7.10;;;;;;;23.80;58.72;101187.08;106809;1261;25322;-49
2023/06/20 00:19:45;;;;;;;7.70;6.90;;;;;;;23.76;58.59;101185.77;106805;1264;25405;-49
2023/06/20 00:22:12;;;;;;;8.50;7.70;;;;;;;23.74;58.69;101187.35;106778;1259;22559;-49
2023/06/20 00:24:39;;;;;;;8.20;7.40;;;;;;;23.70;58.87;101193.63;106826;1260;25342;-49
2023/06/20 00:27:07;;;;;;;8.80;7.90;;;;;;;23.69;59.00;101195.50;106811;1261;25346;-50
2023/06/20 00:29:34;;;;;;;8.80;7.70;;;;;;;23.68;59.21;101199.27;106739;1268;25435;-50
2023/06/20 00:32:01;;;;;;;9.20;7.30;;;;;;;23.67;59.32;101198.98;106768;1257;25509;-51
2023/06/20 00:34:28;;;;;;;8.50;7.60;;;;;;;23.66;59.51;101199.23;106662;1266;22528;-50
2023/06/20 00:36:55;;;;;;;9.70;7.40;;;;;;;23.66;59.73;101204.58;106705;1261;22598;-51
2023/06/20 00:39:22;;;;;;;8.80;6.90;;;;;;;23.68;59.53;101206.05;106600;1269;25587;-50
2023/06/20 00:41:49;;;;;;;11.30;7.70;;;;;;;23.68;59.53;101209.36;106715;1260;24358;-51
2023/06/20 00:44:16;;;;;;;8.50;7.60;;;;;;;23.69;59.49;101215.55;106691;1270;25328;-50
2023/06/20 00:46:43;;;;;;;8.30;7.20;;;;;;;23.69;59.58;101212.52;106466;1269;25325;-50
2023/06/20 00:49:10;;;;;;;9.70;7.70;;;;;;;23.70;59.39;101212.05;106538;1277;25477;-50
2023/06/20 00:51:37;;;;;;;8.70;7.60;;;;;;;23.70;59.27;101216.28;106795;1271;25354;-50
2023/06/20 00:54:04;;;;;;;11.10;7.40;;;;;;;23.72;59.25;101213.67;106666;1273;24210;-49
2023/06/20 00:56:32;;;;;;;8.20;7.40;;;;;;;23.74;59.16;101210.74;106900;1257;25420;-49
2023/06/20 00:58:59;;;;;;;8.40;7.10;;;;;;;23.75;59.08;101214.56;106599;1261;25402;-49
2023/06/20 01:01:31;;;;;;;8.00;7.20;;;;;;;23.75;59.19;101209.77;106721;1267;25324;-49
2023/06/20 01:03:59;;;;;;;8.70;7.60;;;;;;;23.74;59.08;101211.98;106807;1260;25469;-50
2023/06/20 01:06:59;;;;;;;9.50;8.20;;;;;;;23.71;58.89;101210.39;106617;1259;25324;-49
2023/06/20 01:09:38;;;;;;;10.30;8.10;;;;;;;23.74;58.65;101204.36;106763;1265;25347;-49
2023/06/20 01:12:13;;;;;;;8.60;7.70;;;;;;;23.73;58.71;101208.13;106872;1258;22772;-49
2023/06/20 01:15:01;;;;;;;8.10;7.30;;;;;;;23.74;58.63;101204.56;106816;1263;24385;-49
2023/06/20 01:17:34;;;;;;;9.40;7.80;;;;;;;23.73;58.52;101198.05;106843;1260;25341;-49
2023/06/20 01:20:25;;;;;;;8.50;7.60;;;;;;;23.73;58.51;101199.80;106765;1261;25443;-49
2023/06/20 01:23:11;;;;;;;8.30;7.50;;;;;;;23.72;58.79;101198.14;106737;1264;25353;-49
2023/06/20 01:25:46;;;;;;;8.70;7.70;;;;;;;23.72;59.10;101197.98;106822;1264;25473;-49
2023/06/20 01:28:46;;;;;;;10.30;8.30;;;;;;;23.72;59.04;101197.78;106776;1266;22543;-49
2023/06/20 01:31:16;;;;;;;9.70;8.70;;;;;;;23.74;59.29;101200.95;106772;1268;25432;-49
2023/06/20 01:33:56;;;;;;;9.20;7.40;;;;;;;23.75;59.40;101203.00;106736;1260;22517;-49
2023/06/20 01:36:24;;;;;;;10.70;8.10;;;;;;;23.77;59.38;101205.23;106732;1270;25427;-49
2023/06/20 01:38:54;;;;;;;8.90;8.00;;;;;;;23.78;59.18;101203.05;106403;1277;25360;-49
2023/06/20 01:41:22;;;;;;;8.70;7.50;;;;;;;23.78;59.34;101206.55;106768;1270;25521;-49
2023/06/20 01:43:50;;;;;;;8.50;7.70;;;;;;;23.79;59.64;101209.84;106613;1270;22642;-49
2023/06/20 01:46:17;;;;;;;8.40;7.60;;;;;;;23.77;59.85;101212.27;106788;1260;25479;-49
2023/06/20 01:48:44;;;;;;;8.60;7.80;;;;;;;23.67;60.30;101209.63;106759;1261;25353;-49
2023/06/20 01:51:11;;;;;;;8.30;7.20;;;;;;;23.73;60.00;101211.66;106346;1273;25485;-50
2023/06/20 01:53:38;;;;;;;9.10;7.80;;;;;;;23.75;59.89;101212.98;106616;1264;25353;-49
2023/06/20 01:56:05;;;;;;;7.90;7.10;;;;;;;23.74;60.12;101208.60;106734;1264;25387;-49
2023/06/20 01:58:33;;;;;;;9.00;7.30;;;;;;;23.73;60.67;101212.73;106470;1264;25313;-49
2023/06/20 02:01:00;;;;;;;8.30;7.50;;;;;;;23.72;60.98;101215.98;106636;1272;25353;-49
2023/06/20 02:03:28;;;;;;;7.50;6.80;;;;;;;23.70;61.02;101215.44;106327;1276;25331;-49
2023/06/20 02:05:56;;;;;;;11.70;8.30;;;;;;;23.67;61.36;101214.42;106365;1263;25353;-49
2023/06/20 02:08:24;;;;;;;8.60;7.30;;;;;;;23.65;61.54;101209.08;106332;1276;25351;-50
2023/06/20 02:10:51;;;;;;;8.10;7.30;;;;;;;23.62;61.39;101207.15;106371;1273;25419;-49
2023/06/20 02:13:20;;;;;;;9.80;8.00;;;;;;;23.75;61.22;101214.36;106460;1274;25370;-49
2023/06/20 02:15:47;;;;;;;7.90;7.20;;;;;;;23.78;61.27;101214.00;106350;1261;26518;-48
2023/06/20 02:18:14;;;;;;;8.10;7.30;;;;;;;23.81;61.07;101212.74;106268;1267;25374;-50
2023/06/20 02:20:41;;;;;;;8.10;7.30;;;;;;;23.78;61.52;101209.36;106394;1274;25343;-51
2023/06/20 02:23:09;;;;;;;8.00;7.30;;;;;;;23.79;61.71;101207.73;106413;1272;25396;-49
2023/06/20 02:25:39;;;;;;;8.30;7.40;;;;;;;23.64;62.62;101210.23;106265;1275;25373;-48
2023/06/20 02:28:06;;;;;;;8.50;7.70;;;;;;;23.51;63.07;101206.64;105678;1276;1002989;-49
2023/06/20 02:30:33;;;;;;;9.60;7.70;;;;;;;23.48;62.43;101206.16;106264;1267;25434;-48
2023/06/20 02:33:00;;;;;;;8.00;7.20;;;;;;;23.45;62.43;101205.33;106409;1267;25431;-48
2023/06/20 02:35:28;;;;;;;10.70;7.70;;;;;;;23.44;62.59;101204.16;106585;1264;22540;-49
2023/06/20 02:37:56;;;;;;;10.70;7.60;;;;;;;23.43;62.65;101206.86;106486;1273;25325;-49
2023/06/20 02:40:24;;;;;;;9.00;7.60;;;;;;;23.38;62.72;101205.06;106663;1264;25353;-48
2023/06/20 02:42:52;;;;;;;8.60;7.60;;;;;;;23.27;63.46;101206.66;106793;1257;24375;-48
2023/06/20 02:45:20;;;;;;;8.50;7.70;;;;;;;23.25;63.78;101204.14;106755;1263;22551;-49
2023/06/20 02:48:01;;;;;;;7.80;7.00;;;;;;;23.27;63.38;101204.44;106768;1257;25344;-48
2023/06/20 02:50:46;;;;;;;9.60;7.80;;;;;;;23.22;63.53;101203.31;106900;1260;22541;-48
2023/06/20 02:53:31;;;;;;;12.00;8.00;;;;;;;23.19;63.78;101204.92;106798;1270;22539;-48
2023/06/20 02:56:02;;;;;;;8.50;7.70;;;;;;;23.19;64.04;101205.64;106414;1270;25396;-49
2023/06/20 02:58:30;;;;;;;9.10;8.20;;;;;;;23.29;63.65;101206.02;106754;1257;22531;-49
2023/06/20 03:00:58;;;;;;;8.50;7.80;;;;;;;23.29;63.20;101205.11;106610;1270;25389;-49
2023/06/20 03:03:26;;;;;;;9.10;8.10;;;;;;;23.28;63.51;101208.40;106784;1262;25494;-49
2023/06/20 03:05:56;;;;;;;8.30;7.50;;;;;;;23.26;63.88;101210.83;106791;1270;22653;-49
2023/06/20 03:08:30;;;;;;;10.50;9.00;;;;;;;23.24;63.99;101210.77;106507;1263;22537;-49
2023/06/20 03:10:57;;;;;;;8.80;7.90;;;;;;;23.22;64.03;101212.85;106793;1270;25364;-49
2023/06/20 03:13:25;;;;;;;10.50;8.40;;;;;;;23.21;63.83;101220.36;106723;1266;25442;-49
2023/06/20 03:15:55;;;;;;;9.10;8.10;;;;;;;23.19;63.53;101219.26;106733;1257;22555;-49
2023/06/20 03:18:22;;;;;;;9.40;8.10;;;;;;;23.19;63.80;101228.30;106704;1257;23876;-48
2023/06/20 03:20:49;;;;;;;8.70;7.80;;;;;;;23.20;64.11;101227.71;106762;1273;25339;-48
2023/06/20 03:23:16;;;;;;;9.60;8.60;;;;;;;23.21;64.22;101227.25;106774;1268;25348;-48
2023/06/20 03:25:45;;;;;;;10.00;8.00;;;;;;;23.22;64.47;101227.91;106811;1261;25412;-49
2023/06/20 03:28:14;;;;;;;9.40;8.00;;;;;;;23.23;64.45;101230.84;106739;1270;25474;-49
2023/06/20 03:30:44;;;;;;;8.70;7.80;;;;;;;23.23;64.52;101227.51;106660;1266;25394;-49
2023/06/20 03:33:12;;;;;;;9.90;8.90;;;;;;;23.22;64.41;101228.61;106873;1261;25340;-49
2023/06/20 03:35:40;;;;;;;9.30;8.30;;;;;;;23.22;64.55;101229.89;106741;1274;25433;-49
2023/06/20 03:38:07;;;;;;;8.80;7.90;;;;;;;23.23;64.74;101233.38;106368;1263;25402;-49
2023/06/20 03:40:34;;;;;;;9.20;7.50;;;;;;;23.25;64.75;101236.03;106751;1258;25350;-49
2023/06/20 03:43:02;;;;;;;10.20;9.20;;;;;;;23.26;64.71;101242.33;106848;1256;25314;-49
2023/06/20 03:45:30;;;;;;;9.80;8.80;;;;;;;23.27;65.02;101248.46;106564;1267;22667;-49
2023/06/20 03:47:57;;;;;;;9.70;8.80;;;;;;;23.29;65.14;101248.86;106732;1257;25485;-49
2023/06/20 03:50:24;;;;;;;9.80;8.90;;;;;;;23.29;65.35;101246.02;106740;1261;25353;-49
2023/06/20 03:52:52;;;;;;;12.10;9.00;;;;;;;23.30;65.23;101256.23;106850;1256;25475;-49
2023/06/20 03:55:19;;;;;;;10.60;8.50;;;;;;;23.30;65.18;101264.17;106514;1265;25353;-49
2023/06/20 03:57:46;;;;;;;10.00;8.50;;;;;;;23.30;65.16;101260.98;106645;1262;22530;-49
2023/06/20 04:00:14;;;;;;;10.70;8.30;;;;;;;23.31;65.32;101267.16;106593;1274;25435;-49
2023/06/20 04:02:41;;;;;;;10.30;7.60;;;;;;;23.32;65.23;101266.54;106307;1277;25364;-49
2023/06/20 04:05:09;;;;;;;9.40;8.50;;;;;;;23.34;65.10;101269.08;106873;1259;25525;-50
2023/06/20 04:07:42;;;;;;;10.80;8.90;;;;;;;23.36;65.11;101269.70;106689;1266;22543;-49
2023/06/20 04:10:10;;;;;;;10.00;8.60;;;;;;;23.36;64.87;101274.98;106706;1259;22541;-49
2023/06/20 04:12:39;;;;;;;10.10;9.10;;;;;;;23.36;64.60;101272.16;106790;1260;25407;-49
2023/06/20 04:15:07;;;;;;;11.30;9.00;;;;;;;23.36;64.49;101278.00;106770;1260;25338;-49
2023/06/20 04:17:34;;;;;;;9.70;8.70;;;;;;;23.36;64.45;101280.83;106850;1262;22642;-49
2023/06/20 04:20:07;;;;;;;9.90;8.80;;;;;;;23.55;64.01;101280.08;106702;1262;22652;-49
2023/06/20 04:22:34;;;;;;;10.00;8.80;;;;;;;23.64;63.79;101281.57;106790;1257;22559;-49
2023/06/20 04:25:01;;;;;;;14.20;10.60;;;;;;;23.67;63.57;101280.84;106793;1257;25343;-49
2023/06/20 04:27:29;;;;;;;12.10;10.10;;;;;;;23.68;63.50;101278.25;106643;1270;25391;-50
2023/06/20 04:29:57;;;;;;;12.30;10.20;;;;;;;23.69;63.60;101279.95;106695;1256;23224;-51
2023/06/20 04:32:25;;;;;;;12.40;9.80;;;;;;;23.72;63.23;101283.70;106332;1273;22534;-50
2023/06/20 04:34:52;;;;;;;11.70;10.60;;;;;;;23.72;63.14;101289.36;106425;1262;25353;-50
2023/06/20 04:37:22;;;;;;;11.70;10.50;;;;;;;23.73;63.12;101297.45;106589;1259;22523;-51
2023/06/20 04:39:49;;;;;;;13.90;10.20;;;;;;;23.70;63.27;101295.86;106792;1257;25336;-51
2023/06/20 04:42:17;;;;;;;12.50;11.20;;;;;;;23.73;63.33;101296.02;106796;1267;25520;-50
2023/06/20 04:44:44;;;;;;;14.30;11.80;;;;;;;23.74;63.10;101292.25;106757;1262;25335;-51
2023/06/20 04:47:12;;;;;;;15.00;12.20;;;;;;;23.73;63.08;101297.77;106720;1268;25348;-50
2023/06/20 04:49:43;;;;;;;16.30;12.40;;;;;;;23.55;63.67;101301.30;106707;1268;25278;-49
2023/06/20 04:52:10;;;;;;;15.00;12.70;;;;;;;23.47;64.24;101309.15;106728;1275;25368;-49
2023/06/20 04:54:38;;;;;;;16.60;12.50;;;;;;;23.47;64.54;101314.98;106637;1270;25344;-49
2023/06/20 04:57:05;;;;;;;17.50;13.90;;;;;;;23.50;64.63;101317.28;106755;1271;25364;-49
2023/06/20 04:59:35;;;;;;;19.90;14.80;;;;;;;23.52;64.72;101315.52;106679;1271;26202;-50
2023/06/20 05:02:05;;;;;;;19.10;14.00;;;;;;;23.54;64.61;101317.31;106939;1265;25335;-50
2023/06/20 05:04:32;;;;;;;16.20;13.60;;;;;;;23.56;64.66;101326.38;106468;1274;22534;-50
2023/06/20 05:07:00;;;;;;;18.70;14.40;;;;;;;23.57;64.59;101326.70;106859;1264;25402;-49
2023/06/20 05:09:27;;;;;;;18.00;14.50;;;;;;;23.67;64.54;101326.55;106864;1259;25398;-50
2023/06/20 05:11:55;;;;;;;17.10;14.10;;;;;;;23.88;64.04;101325.80;106754;1259;22991;-50
2023/06/20 05:14:27;;;;;;;17.70;14.30;;;;;;;23.94;64.00;101327.88;106733;1260;25297;-50
2023/06/20 05:16:54;;;;;;;21.00;14.20;;;;;;;24.00;63.94;101328.35;106844;1269;25411;-49
2023/06/20 05:19:21;;;;;;;16.60;13.60;;;;;;;24.04;64.07;101330.20;106769;1258;25331;-49
2023/06/20 05:21:48;;;;;;;18.90;13.90;;;;;;;24.09;63.85;101333.55;106847;1260;25380;-50
2023/06/20 05:24:15;;;;;;;17.60;13.50;;;;;;;24.12;63.70;101335.70;106561;1260;25535;-50
2023/06/20 05:26:42;;;;;;;16.60;13.00;;;;;;;24.15;63.75;101336.71;106430;1262;25328;-50
2023/06/20 05:29:09;;;;;;;16.80;12.50;;;;;;;24.20;63.76;101330.70;106581;1266;25415;-50
2023/06/20 05:31:41;;;;;;;15.50;12.10;;;;;;;24.26;63.78;101336.65;106473;1264;22530;-51
2023/06/20 05:34:08;;;;;;;16.40;12.60;;;;;;;24.32;63.44;101335.42;106342;1262;25341;-50
2023/06/20 05:36:36;;;;;;;13.10;11.50;;;;;;;24.37;63.36;101344.08;106322;1258;25358;-52
2023/06/20 05:39:03;;;;;;;13.00;10.60;;;;;;;24.42;63.27;101348.67;106162;1274;25660;-50
2023/06/20 05:41:30;;;;;;;13.00;10.40;;;;;;;24.48;63.06;101346.67;105626;1264;1003048;-50
2023/06/20 05:43:58;;;;;;;10.50;9.40;;;;;;;24.55;63.05;101349.13;106369;1270;25480;-50
2023/06/20 05:46:25;;;;;;;10.40;9.20;;;;;;;24.65;62.85;101350.60;106282;1258;25404;-49
2023/06/20 05:48:52;;;;;;;10.40;9.10;;;;;;;24.72;62.82;101344.05;106267;1264;25403;-49
2023/06/20 05:51:19;;;;;;;11.40;9.60;;;;;;;24.79;62.56;101347.98;106544;1262;25360;-49
2023/06/20 05:53:46;;;;;;;10.20;9.10;;;;;;;24.87;62.26;101350.98;106524;1277;25419;-51
2023/06/20 05:56:13;;;;;;;9.70;8.70;;;;;;;24.96;62.38;101357.22;106476;1264;25350;-51
2023/06/20 05:58:41;;;;;;;9.90;9.00;;;;;;;25.06;62.31;101360.38;106583;1264;25474;-49
2023/06/20 06:01:10;;;;;;;9.60;8.60;;;;;;;25.17;62.40;101356.56;106214;1263;25352;-51
2023/06/20 06:03:38;;;;;;;13.00;8.40;;;;;;;25.29;62.22;101358.88;106223;1274;25576;-49
2023/06/20 06:06:09;;;;;;;10.10;8.90;;;;;;;25.43;62.10;101359.45;106791;1258;25373;-51
2023/06/20 06:08:36;;;;;;;9.10;8.30;;;;;;;25.56;61.75;101355.23;106803;1259;25802;-49
2023/06/20 06:11:04;;;;;;;9.70;8.90;;;;;;;25.65;61.44;101358.32;106442;1267;25373;-49
2023/06/20 06:13:32;;;;;;;9.80;8.80;;;;;;;25.69;61.14;101355.17;106774;1256;25471;-51
2023/06/20 06:15:59;;;;;;;10.70;8.20;;;;;;;25.73;61.28;101358.61;106757;1270;25376;-51
2023/06/20 06:18:30;;;;;;;9.50;8.60;;;;;;;25.80;61.32;101353.46;106539;1260;22527;-50
2023/06/20 06:20:57;;;;;;;9.20;8.10;;;;;;;25.89;61.27;101355.60;106348;1264;25459;-49
2023/06/20 06:23:24;;;;;;;10.10;7.90;;;;;;;26.05;61.39;101356.38;106777;1259;25353;-48
2023/06/20 06:25:52;;;;;;;8.80;7.70;;;;;;;26.25;61.18;101358.40;107078;1253;25469;-48
2023/06/20 06:28:19;;;;;;;9.00;8.10;;;;;;;26.48;61.19;101356.85;107119;1257;24221;-48
2023/06/20 06:30:46;;;;;;;10.40;7.30;;;;;;;26.80;61.33;101359.17;107089;1251;25555;-51
2023/06/20 06:33:13;;;;;;;10.20;7.60;;;;;;;27.18;60.99;101360.81;107076;1256;25372;-51
2023/06/20 06:35:42;;;;;;;8.30;6.80;;;;;;;27.61;60.38;101359.08;107157;1259;25354;-50
2023/06/20 06:38:09;;;;;;;7.70;7.00;;;;;;;27.97;59.30;101359.44;107070;1258;25346;-50
2023/06/20 06:40:36;;;;;;;8.40;6.60;;;;;;;28.25;58.40;101356.32;106926;1258;25356;-50
2023/06/20 06:43:03;;;;;;;7.70;6.50;;;;;;;28.38;58.10;101356.41;107086;1257;25332;-51
2023/06/20 06:45:32;;;;;;;9.70;7.20;;;;;;;28.53;57.41;101360.63;106936;1265;25384;-51
2023/06/20 06:47:59;;;;;;;7.30;5.70;;;;;;;28.65;57.07;101363.33;107171;1253;25481;-50
2023/06/20 06:50:26;;;;;;;7.80;6.90;;;;;;;28.75;56.66;101365.77;106980;1257;25345;-49
2023/06/20 06:52:54;;;;;;;7.00;6.20;;;;;;;28.89;56.19;101368.43;107161;1253;25332;-50
2023/06/20 06:55:22;;;;;;;12.20;6.70;;;;;;;28.97;56.04;101368.11;106870;1256;25360;-50
2023/06/20 06:57:49;;;;;;;9.90;7.30;;;;;;;29.03;55.88;101373.02;107166;1263;22526;-50
2023/06/20 07:00:17;;;;;;;7.90;6.50;;;;;;;29.08;55.75;101375.37;107025;1253;22537;-49
2023/06/20 07:02:45;;;;;;;7.80;6.50;;;;;;;29.12;55.80;101377.67;106931;1258;24561;-50
2023/06/20 07:05:12;;;;;;;7.70;6.10;;;;;;;29.18;55.59;101380.05;107058;1256;25350;-49
2023/06/20 07:07:39;;;;;;;8.90;6.70;;;;;;;29.23;55.25;101378.89;106747;1265;25350;-49
2023/06/20 07:10:07;;;;;;;9.00;6.50;;;;;;;29.25;54.43;101380.95;107011;1256;25482;-49
2023/06/20 07:12:34;;;;;;;7.10;6.20;;;;;;;29.25;53.89;101383.66;107129;1264;25353;-50
2023/06/20 07:15:01;;;;;;;6.20;5.70;;;;;;;29.23;53.71;101385.66;107034;1251;25247;-49
2023/06/20 07:17:28;;;;;;;6.90;6.10;;;;;;;29.19;53.35;101387.95;107170;1252;25347;-50
2023/06/20 07:19:55;;;;;;;6.70;5.90;;;;;;;29.15;53.18;101391.18;107134;1255;25332;-50
2023/06/20 07:22:23;;;;;;;7.50;6.00;;;;;;;29.13;53.25;101397.92;107111;1267;25360;-49
2023/06/20 07:24:51;;;;;;;9.00;6.40;;;;;;;29.12;53.55;101396.59;107115;1264;25332;-49
2023/06/20 07:27:22;;;;;;;8.50;6.30;;;;;;;29.11;53.58;101395.66;107066;1256;25459;-50
2023/06/20 07:29:49;;;;;;;7.70;6.30;;;;;;;29.10;53.94;101394.54;107051;1256;23890;-51
2023/06/20 07:32:16;;;;;;;7.40;6.30;;;;;;;29.08;54.02;101397.95;107042;1264;22549;-49
2023/06/20 07:34:43;;;;;;;6.90;6.30;;;;;;;29.05;54.06;101398.66;107030;1264;25357;-50
2023/06/20 07:37:10;;;;;;;7.00;6.20;;;;;;;29.05;54.18;101400.49;107041;1251;25469;-49
2023/06/20 07:39:42;;;;;;;7.00;6.00;;;;;;;29.08;53.75;101405.02;106928;1272;25344;-50
2023/06/20 07:42:11;;;;;;;6.70;6.00;;;;;;;29.11;53.43;101413.70;107018;1264;25330;-49
2023/06/20 07:44:38;;;;;;;11.40;6.80;;;;;;;29.14;53.62;101418.84;107084;1264;25360;-49
2023/06/20 07:47:06;;;;;;;6.80;6.20;;;;;;;29.16;53.67;101424.03;107053;1256;25482;-51
2023/06/20 07:49:33;;;;;;;6.90;6.20;;;;;;;29.18;53.90;101431.12;107089;1267;22523;-49
2023/06/20 07:52:00;;;;;;;7.40;6.10;;;;;;;29.17;53.99;101425.11;107120;1258;25803;-49
2023/06/20 07:54:27;;;;;;;6.60;5.90;;;;;;;29.14;54.10;101429.71;107034;1257;25332;-50
2023/06/20 07:56:54;;;;;;;6.30;5.70;;;;;;;29.09;53.86;101434.98;107097;1257;25486;-49
2023/06/20 07:59:21;;;;;;;8.70;5.60;;;;;;;29.06;54.09;101438.78;107172;1265;25332;-50
2023/06/20 08:01:48;;;;;;;6.80;5.70;;;;;;;29.07;54.21;101441.55;106933;1267;25332;-49
2023/06/20 08:04:15;;;;;;;6.40;5.80;;;;;;;29.10;54.14;101442.38;106888;1259;25360;-50
2023/06/20 08:06:42;;;;;;;6.50;5.80;;;;;;;29.13;54.17;101444.78;106836;1274;25347;-50
2023/06/20 08:09:09;;;;;;;7.20;5.60;;;;;;;29.18;54.41;101445.13;107126;1256;25382;-49
2023/06/20 08:11:37;;;;;;;6.40;5.80;;;;;;;29.23;54.07;101446.63;107111;1253;25333;-49
2023/06/20 08:14:04;;;;;;;6.80;6.00;;;;;;;29.26;54.30;101451.34;107087;1262;25386;-49
2023/06/20 08:16:32;;;;;;;6.20;5.50;;;;;;;29.30;54.29;101451.67;106756;1257;25332;-50
2023/06/20 08:18:59;;;;;;;7.20;5.60;;;;;;;29.36;54.00;101452.05;106781;1255;24405;-48
2023/06/20 08:21:26;;;;;;;6.30;5.40;;;;;;;29.37;53.88;101452.98;107009;1269;23320;-51
2023/06/20 08:23:53;;;;;;;7.40;5.50;;;;;;;29.37;53.82;101458.02;106713;1257;25376;-52
2023/06/20 08:26:21;;;;;;;9.40;5.70;;;;;;;29.37;53.69;101459.65;106769;1268;23889;-52
2023/06/20 08:28:48;;;;;;;6.30;5.60;;;;;;;29.37;53.74;101462.44;106989;1260;25373;-51
2023/06/20 08:31:15;;;;;;;5.80;5.10;;;;;;;29.40;53.88;101464.54;107077;1256;25469;-53
2023/06/20 08:33:42;;;;;;;7.40;5.50;;;;;;;29.44;53.67;101465.60;107107;1259;25332;-53
2023/06/20 08:36:10;;;;;;;5.90;5.20;;;;;;;29.47;53.65;101467.77;106786;1275;25425;-49
2023/06/20 08:38:38;;;;;;;7.90;5.60;;;;;;;29.50;53.69;101469.71;107165;1256;25370;-50
2023/06/20 08:41:09;;;;;;;7.30;4.90;;;;;;;29.54;53.77;101471.98;106829;1256;25360;-49
2023/06/20 08:43:36;;;;;;;7.00;5.30;;;;;;;29.59;53.78;101475.82;107086;1257;24264;-49
2023/06/20 08:46:03;;;;;;;5.80;5.20;;;;;;;29.64;53.86;101477.48;107073;1256;25412;-49
2023/06/20 08:48:30;;;;;;;6.50;5.20;;;;;;;29.71;54.21;101479.05;106816;1256;25367;-50
2023/06/20 08:50:57;;;;;;;6.20;5.30;;;;;;;29.76;53.51;101482.73;107093;1256;22547;-49
2023/06/20 08:53:24;;;;;;;6.10;5.30;;;;;;;29.86;53.20;101483.63;106957;1256;25387;-49
2023/06/20 08:55:52;;;;;;;5.50;5.00;;;;;;;29.94;52.80;101486.61;106815;1274;25342;-49
2023/06/20 08:58:21;;;;;;;8.00;5.60;;;;;;;30.02;52.54;101484.95;106862;1256;25482;-49
2023/06/20 09:00:48;;;;;;;8.70;5.00;;;;;;;30.11;52.42;101484.44;106784;1260;24250;-49
2023/06/20 09:03:16;;;;;;;5.60;5.00;;;;;;;30.20;52.26;101487.70;107127;1264;23318;-51
2023/06/20 09:05:46;;;;;;;6.30;5.20;;;;;;;30.30;52.18;101488.59;107054;1253;25372;-49
2023/06/20 09:08:17;;;;;;;5.30;4.80;;;;;;;30.39;51.40;101492.77;107112;1257;22528;-49
2023/06/20 09:10:44;;;;;;;7.30;5.30;;;;;;;30.47;50.90;101495.41;107129;1263;24057;-48
2023/06/20 09:13:12;;;;;;;5.60;4.60;;;;;;;30.53;50.18;101497.34;107157;1257;25360;-48
2023/06/20 09:15:41;;;;;;;6.40;4.70;;;;;;;30.60;49.99;101496.39;107055;1257;25350;-49
2023/06/20 09:18:11;;;;;;;5.60;4.50;;;;;;;30.59;50.02;101491.25;107152;1264;25469;-48
2023/06/20 09:20:43;;;;;;;6.80;5.30;;;;;;;30.64;49.30;101491.12;106912;1268;24074;-48
2023/06/20 09:23:10;;;;;;;6.60;5.30;;;;;;;30.63;49.11;101492.66;107045;1257;25409;-48
2023/06/20 09:25:39;;;;;;;5.10;4.60;;;;;;;30.58;49.30;101494.22;107076;1264;25479;-48
2023/06/20 09:28:13;;;;;;;5.60;4.90;;;;;;;30.56;49.23;101491.86;107115;1260;25444;-49
2023/06/20 09:30:44;;;;;;;4.80;4.40;;;;;;;30.52;49.75;101487.90;107097;1264;22523;-49
2023/06/20 09:33:13;;;;;;;7.10;4.70;;;;;;;30.49;49.84;101487.20;107126;1256;25321;-48
2023/06/20 09:35:40;;;;;;;5.50;4.70;;;;;;;30.45;49.26;101488.98;107086;1256;25343;-49
2023/06/20 09:38:07;;;;;;;6.90;4.10;;;;;;;30.41;48.95;101490.05;106838;1259;25373;-49
2023/06/20 09:40:44;;;;;;;7.10;5.00;;;;;;;30.37;48.41;101486.56;107026;1256;22531;-48
2023/06/20 09:43:11;;;;;;;5.00;4.50;;;;;;;30.29;48.15;101484.38;107044;1261;22518;-49
2023/06/20 09:45:39;;;;;;;5.50;4.20;;;;;;;30.24;48.52;101485.96;107065;1256;25322;-48
2023/06/20 09:48:10;;;;;;;7.10;4.70;;;;;;;30.19;49.28;101481.73;106776;1251;24209;-48
2023/06/20 09:50:37;;;;;;;5.70;4.60;;;;;;;30.17;49.84;101479.55;107133;1257;25304;-50
2023/06/20 09:53:39;;;;;;;5.90;4.60;;;;;;;30.17;49.36;101476.92;106813;1269;22547;-49
2023/06/20 09:56:06;;;;;;;4.60;3.90;;;;;;;30.15;48.45;101478.70;106516;1264;25342;-48
2023/06/20 09:58:34;;;;;;;5.20;4.20;;;;;;;30.12;48.72;101481.14;106532;1270;25350;-48
2023/06/20 10:01:01;;;;;;;4.70;4.10;;;;;;;30.16;48.55;101479.67;106363;1266;25390;-48
2023/06/20 10:03:28;;;;;;;4.80;4.30;;;;;;;30.27;48.42;101477.79;106464;1267;25408;-49
2023/06/20 10:05:56;;;;;;;5.10;4.30;;;;;;;30.38;48.29;101480.14;106531;1262;25369;-48
2023/06/20 10:08:22;;;;;;;5.40;4.30;;;;;;;30.37;48.34;101483.42;106535;1270;25453;-48
2023/06/20 10:10:50;;;;;;;5.00;4.20;;;;;;;30.38;47.98;101481.27;106366;1272;25351;-48
2023/06/20 10:13:17;;;;;;;5.90;4.60;;;;;;;30.52;47.39;101479.89;106322;1266;23259;-49
2023/06/20 10:15:48;;;;;;;5.40;4.20;;;;;;;30.61;47.07;101479.11;106472;1262;25373;-50
2023/06/20 10:18:29;;;;;;;5.40;4.30;;;;;;;30.62;47.41;101480.45;106478;1265;24252;-48
2023/06/20 10:20:57;;;;;;;4.70;4.20;;;;;;;30.64;47.47;101482.92;106415;1271;22558;-48
2023/06/20 10:23:31;;;;;;;6.70;3.90;;;;;;;30.66;47.59;101481.61;106409;1278;25354;-48
2023/06/20 10:25:58;;;;;;;4.90;4.20;;;;;;;30.67;47.59;101481.42;106653;1262;25370;-49
2023/06/20 10:28:25;;;;;;;4.90;3.80;;;;;;;30.66;47.30;101479.35;106444;1264;25740;-48
2023/06/20 10:31:02;;;;;;;5.60;3.90;;;;;;;30.63;46.98;101478.14;106448;1272;25332;-48
2023/06/20 10:33:34;;;;;;;4.20;3.70;;;;;;;30.61;46.92;101484.09;106747;1263;25309;-49
2023/06/20 10:36:05;;;;;;;;;;;;;;;30.61;46.84;101487.37;107021;1255;23888;-49
2023/06/20 10:38:42;;;;;;;5.70;4.10;;;;;;;30.62;47.31;101491.49;107082;1256;25539;-50
2023/06/20 10:41:32;;;;;;;5.40;3.80;;;;;;;30.65;47.45;101493.05;107142;1253;22531;-50
2023/06/20 10:44:00;;;;;;;5.30;3.50;;;;;;;30.67;47.03;101493.94;106913;1261;25360;-50
2023/06/20 10:46:34;;;;;;;4.50;3.40;;;;;;;30.68;46.61;101493.99;106834;1256;22804;-50
2023/06/20 10:49:04;;;;;;;5.60;4.00;;;;;;;30.69;45.97;101493.14;107049;1256;25412;-50
2023/06/20 10:52:02;;;;;;;6.70;4.00;;;;;;;30.72;45.74;101500.79;107121;1260;25607;-49
2023/06/20 10:54:35;;;;;;;4.60;3.80;;;;;;;30.76;45.67;101505.41;106439;1265;25398;-50
2023/06/20 10:57:04;;;;;;;6.10;3.70;;;;;;;30.78;46.18;101503.63;106293;1281;25312;-49
2023/06/20 10:59:31;;;;;;;5.30;3.80;;;;;;;30.80;46.30;101504.50;106417;1259;25460;-50
2023/06/20 11:01:58;;;;;;;4.50;3.80;;;;;;;30.82;45.76;101504.69;106535;1270;25414;-50
2023/06/20 11:04:25;;;;;;;9.40;3.70;;;;;;;30.81;45.47;101500.75;106403;1262;25367;-49
2023/06/20 11:06:52;;;;;;;4.80;3.80;;;;;;;30.82;45.37;101503.90;106462;1262;25876;-50
2023/06/20 11:09:20;;;;;;;4.00;3.60;;;;;;;30.80;45.73;101506.79;106480;1267;25345;-49
2023/06/20 11:11:48;;;;;;;6.90;4.20;;;;;;;30.83;45.63;101505.81;106472;1268;25412;-49
2023/06/20 11:14:18;;;;;;;4.70;3.80;;;;;;;30.87;45.54;101509.23;106507;1262;22649;-50
2023/06/20 11:16:46;;;;;;;4.50;4.00;;;;;;;30.89;45.47;101507.56;106398;1264;25366;-48
2023/06/20 11:19:14;;;;;;;7.20;3.90;;;;;;;30.91;45.02;101508.11;106347;1278;22535;-49
2023/06/20 11:22:01;;;;;;;8.10;3.80;;;;;;;30.93;44.92;101504.73;106495;1276;25360;-49